sensor_id;sensor_type;location;lat;lon;timestamp;P1;durP1;ratioP1;P2;durP2;ratioP2
64282;SDS011;50497;50.720;-2.084;2023-07-30T00:01:46;5.90;;;1.30;;
64282;SDS011;50497;50.720;-2.084;2023-07-30T00:04:12;4.68;;;1.40;;
64282;SDS011;50497;50.720;-2.084;2023-07-30T00:06:37;5.28;;;1.30;;
64282;SDS011;50497;50.720;-2.084;2023-07-30T00:09:02;2.97;;;1.20;;
64282;SDS011;50497;50.720;-2.084;2023-07-30T00:11:29;3.72;;;1.20;;
64282;SDS011;50497;50.720;-2.084;2023-07-30T00:13:54;5.63;;;1.20;;
64282;SDS011;50497;50.720;-2.084;2023-07-30T00:16:20;3.85;;;1.20;;
64282;SDS011;50497;50.720;-2.084;2023-07-30T00:18:45;3.95;;;1.27;;
64282;SDS011;50497;50.720;-2.084;2023-07-30T00:21:10;4.20;;;1.20;;
64282;SDS011;50497;50.720;-2.084;2023-07-30T00:23:36;4.65;;;1.33;;
64282;SDS011;50497;50.720;-2.084;2023-07-30T00:26:01;3.75;;;1.00;;
64282;SDS011;50497;50.720;-2.084;2023-07-30T00:28:26;5.55;;;1.30;;
64282;SDS011;50497;50.720;-2.084;2023-07-30T00:30:52;5.40;;;1.10;;
64282;SDS011;50497;50.720;-2.084;2023-07-30T00:33:17;4.97;;;1.10;;
64282;SDS011;50497;50.720;-2.084;2023-07-30T00:35:42;4.18;;;1.50;;
64282;SDS011;50497;50.720;-2.084;2023-07-30T00:38:08;4.38;;;1.17;;
64282;SDS011;50497;50.720;-2.084;2023-07-30T00:40:33;3.67;;;1.13;;
64282;SDS011;50497;50.720;-2.084;2023-07-30T00:43:04;5.57;;;1.38;;
64282;SDS011;50497;50.720;-2.084;2023-07-30T00:45:30;4.88;;;1.45;;
64282;SDS011;50497;50.720;-2.084;2023-07-30T00:47:56;4.47;;;1.20;;
64282;SDS011;50497;50.720;-2.084;2023-07-30T00:50:21;4.40;;;1.27;;
64282;SDS011;50497;50.720;-2.084;2023-07-30T00:52:46;7.43;;;1.40;;
64282;SDS011;50497;50.720;-2.084;2023-07-30T00:55:13;8.20;;;1.55;;
64282;SDS011;50497;50.720;-2.084;2023-07-30T01:00:06;7.95;;;1.70;;
64282;SDS011;50497;50.720;-2.084;2023-07-30T01:02:35;8.20;;;1.63;;
64282;SDS011;50497;50.720;-2.084;2023-07-30T01:05:01;5.80;;;1.40;;
64282;SDS011;50497;50.720;-2.084;2023-07-30T01:07:28;5.53;;;1.38;;
64282;SDS011;50497;50.720;-2.084;2023-07-30T01:09:53;6.97;;;1.40;;
64282;SDS011;50497;50.720;-2.084;2023-07-30T01:12:19;7.53;;;1.52;;
64282;SDS011;50497;50.720;-2.084;2023-07-30T01:14:45;7.05;;;1.33;;
64282;SDS011;50497;50.720;-2.084;2023-07-30T01:17:11;9.52;;;1.92;;
64282;SDS011;50497;50.720;-2.084;2023-07-30T01:19:37;7.07;;;1.60;;
64282;SDS011;50497;50.720;-2.084;2023-07-30T01:22:02;8.52;;;1.70;;
64282;SDS011;50497;50.720;-2.084;2023-07-30T01:24:28;9.55;;;1.65;;
64282;SDS011;50497;50.720;-2.084;2023-07-30T01:26:59;9.25;;;1.65;;
64282;SDS011;50497;50.720;-2.084;2023-07-30T01:29:28;8.02;;;1.50;;
64282;SDS011;50497;50.720;-2.084;2023-07-30T01:32:16;6.03;;;1.60;;
64282;SDS011;50497;50.720;-2.084;2023-07-30T01:34:44;5.85;;;1.67;;
64282;SDS011;50497;50.720;-2.084;2023-07-30T01:37:12;6.95;;;1.70;;
64282;SDS011;50497;50.720;-2.084;2023-07-30T01:39:39;10.57;;;1.90;;
64282;SDS011;50497;50.720;-2.084;2023-07-30T01:42:05;6.40;;;1.85;;
64282;SDS011;50497;50.720;-2.084;2023-07-30T01:44:31;7.35;;;1.80;;
64282;SDS011;50497;50.720;-2.084;2023-07-30T01:46:56;8.00;;;1.80;;
64282;SDS011;50497;50.720;-2.084;2023-07-30T01:49:21;8.73;;;1.73;;
64282;SDS011;50497;50.720;-2.084;2023-07-30T01:51:47;9.13;;;1.67;;
64282;SDS011;50497;50.720;-2.084;2023-07-30T01:54:13;6.30;;;1.60;;
64282;SDS011;50497;50.720;-2.084;2023-07-30T01:56:38;9.02;;;1.70;;
64282;SDS011;50497;50.720;-2.084;2023-07-30T01:59:04;7.22;;;1.63;;
64282;SDS011;50497;50.720;-2.084;2023-07-30T02:01:29;9.73;;;1.83;;
64282;SDS011;50497;50.720;-2.084;2023-07-30T02:03:54;7.13;;;1.60;;
64282;SDS011;50497;50.720;-2.084;2023-07-30T02:06:20;6.88;;;1.52;;
64282;SDS011;50497;50.720;-2.084;2023-07-30T02:08:45;8.48;;;1.60;;
64282;SDS011;50497;50.720;-2.084;2023-07-30T02:11:10;7.30;;;1.60;;
64282;SDS011;50497;50.720;-2.084;2023-07-30T02:13:36;9.93;;;2.00;;
64282;SDS011;50497;50.720;-2.084;2023-07-30T02:16:01;8.35;;;1.67;;
64282;SDS011;50497;50.720;-2.084;2023-07-30T02:18:26;11.70;;;1.70;;
64282;SDS011;50497;50.720;-2.084;2023-07-30T02:20:52;7.75;;;1.90;;
64282;SDS011;50497;50.720;-2.084;2023-07-30T02:23:17;6.47;;;1.63;;
64282;SDS011;50497;50.720;-2.084;2023-07-30T02:25:43;10.60;;;1.90;;
64282;SDS011;50497;50.720;-2.084;2023-07-30T02:28:08;7.00;;;1.70;;
64282;SDS011;50497;50.720;-2.084;2023-07-30T02:30:34;7.05;;;1.80;;
64282;SDS011;50497;50.720;-2.084;2023-07-30T02:32:59;8.43;;;1.88;;
64282;SDS011;50497;50.720;-2.084;2023-07-30T02:35:25;7.97;;;2.08;;
64282;SDS011;50497;50.720;-2.084;2023-07-30T02:37:50;8.50;;;1.80;;
64282;SDS011;50497;50.720;-2.084;2023-07-30T02:40:15;7.60;;;1.60;;
64282;SDS011;50497;50.720;-2.084;2023-07-30T02:42:41;11.07;;;2.08;;
64282;SDS011;50497;50.720;-2.084;2023-07-30T02:45:06;12.38;;;1.90;;
64282;SDS011;50497;50.720;-2.084;2023-07-30T02:47:32;9.35;;;1.80;;
64282;SDS011;50497;50.720;-2.084;2023-07-30T02:49:57;7.93;;;1.73;;
64282;SDS011;50497;50.720;-2.084;2023-07-30T02:52:22;8.63;;;1.63;;
64282;SDS011;50497;50.720;-2.084;2023-07-30T02:54:48;7.88;;;1.77;;
64282;SDS011;50497;50.720;-2.084;2023-07-30T02:57:13;9.68;;;1.80;;
64282;SDS011;50497;50.720;-2.084;2023-07-30T02:59:38;6.88;;;1.70;;
64282;SDS011;50497;50.720;-2.084;2023-07-30T03:02:05;8.77;;;1.90;;
64282;SDS011;50497;50.720;-2.084;2023-07-30T03:04:31;10.55;;;2.45;;
64282;SDS011;50497;50.720;-2.084;2023-07-30T03:06:56;10.27;;;2.10;;
64282;SDS011;50497;50.720;-2.084;2023-07-30T03:09:22;8.40;;;1.80;;
64282;SDS011;50497;50.720;-2.084;2023-07-30T03:11:47;9.60;;;1.80;;
64282;SDS011;50497;50.720;-2.084;2023-07-30T03:14:14;9.18;;;1.75;;
64282;SDS011;50497;50.720;-2.084;2023-07-30T03:16:39;7.43;;;2.17;;
64282;SDS011;50497;50.720;-2.084;2023-07-30T03:19:05;6.72;;;1.60;;
64282;SDS011;50497;50.720;-2.084;2023-07-30T03:21:30;8.68;;;2.10;;
64282;SDS011;50497;50.720;-2.084;2023-07-30T03:23:55;8.68;;;1.98;;
64282;SDS011;50497;50.720;-2.084;2023-07-30T03:26:21;8.57;;;1.88;;
64282;SDS011;50497;50.720;-2.084;2023-07-30T03:28:46;9.93;;;1.90;;
64282;SDS011;50497;50.720;-2.084;2023-07-30T03:31:11;12.55;;;2.20;;
64282;SDS011;50497;50.720;-2.084;2023-07-30T03:33:37;9.25;;;1.90;;
64282;SDS011;50497;50.720;-2.084;2023-07-30T03:36:04;6.38;;;2.08;;
64282;SDS011;50497;50.720;-2.084;2023-07-30T03:38:30;8.35;;;1.83;;
64282;SDS011;50497;50.720;-2.084;2023-07-30T03:40:55;9.05;;;2.95;;
64282;SDS011;50497;50.720;-2.084;2023-07-30T03:43:20;7.95;;;2.00;;
64282;SDS011;50497;50.720;-2.084;2023-07-30T03:45:46;9.52;;;2.00;;
64282;SDS011;50497;50.720;-2.084;2023-07-30T03:48:13;10.88;;;2.25;;
64282;SDS011;50497;50.720;-2.084;2023-07-30T03:50:39;8.35;;;2.13;;
64282;SDS011;50497;50.720;-2.084;2023-07-30T03:53:04;11.77;;;2.15;;
64282;SDS011;50497;50.720;-2.084;2023-07-30T03:55:29;10.25;;;2.00;;
64282;SDS011;50497;50.720;-2.084;2023-07-30T03:57:55;9.20;;;1.95;;
64282;SDS011;50497;50.720;-2.084;2023-07-30T04:00:20;11.00;;;2.35;;
64282;SDS011;50497;50.720;-2.084;2023-07-30T04:02:45;11.30;;;2.40;;
64282;SDS011;50497;50.720;-2.084;2023-07-30T04:05:11;9.63;;;2.28;;
64282;SDS011;50497;50.720;-2.084;2023-07-30T04:07:36;9.65;;;2.28;;
64282;SDS011;50497;50.720;-2.084;2023-07-30T04:10:01;11.73;;;3.22;;
64282;SDS011;50497;50.720;-2.084;2023-07-30T04:12:27;10.88;;;2.20;;
64282;SDS011;50497;50.720;-2.084;2023-07-30T04:14:52;9.95;;;2.40;;
64282;SDS011;50497;50.720;-2.084;2023-07-30T04:17:17;12.80;;;2.25;;
64282;SDS011;50497;50.720;-2.084;2023-07-30T04:19:43;12.50;;;3.03;;
64282;SDS011;50497;50.720;-2.084;2023-07-30T04:22:08;9.20;;;1.92;;
64282;SDS011;50497;50.720;-2.084;2023-07-30T04:24:33;10.52;;;2.13;;
64282;SDS011;50497;50.720;-2.084;2023-07-30T04:27:00;9.02;;;2.03;;
64282;SDS011;50497;50.720;-2.084;2023-07-30T04:29:25;15.75;;;2.40;;
64282;SDS011;50497;50.720;-2.084;2023-07-30T04:31:51;7.25;;;2.10;;
64282;SDS011;50497;50.720;-2.084;2023-07-30T04:34:16;8.68;;;2.08;;
64282;SDS011;50497;50.720;-2.084;2023-07-30T04:36:41;8.85;;;1.90;;
64282;SDS011;50497;50.720;-2.084;2023-07-30T04:39:07;8.38;;;2.05;;
64282;SDS011;50497;50.720;-2.084;2023-07-30T04:41:32;11.80;;;2.05;;
64282;SDS011;50497;50.720;-2.084;2023-07-30T04:43:57;9.15;;;2.30;;
64282;SDS011;50497;50.720;-2.084;2023-07-30T04:46:23;8.13;;;2.10;;
64282;SDS011;50497;50.720;-2.084;2023-07-30T04:48:48;12.48;;;2.97;;
64282;SDS011;50497;50.720;-2.084;2023-07-30T04:51:13;8.30;;;2.08;;
64282;SDS011;50497;50.720;-2.084;2023-07-30T04:53:39;14.93;;;2.65;;
64282;SDS011;50497;50.720;-2.084;2023-07-30T04:56:04;10.95;;;2.58;;
64282;SDS011;50497;50.720;-2.084;2023-07-30T04:58:30;10.13;;;2.70;;
64282;SDS011;50497;50.720;-2.084;2023-07-30T05:00:55;9.95;;;3.53;;
64282;SDS011;50497;50.720;-2.084;2023-07-30T05:03:20;14.30;;;7.93;;
64282;SDS011;50497;50.720;-2.084;2023-07-30T05:05:46;11.05;;;2.47;;
64282;SDS011;50497;50.720;-2.084;2023-07-30T05:08:11;11.98;;;2.50;;
64282;SDS011;50497;50.720;-2.084;2023-07-30T05:10:36;14.25;;;5.43;;
64282;SDS011;50497;50.720;-2.084;2023-07-30T05:13:02;11.77;;;5.90;;
64282;SDS011;50497;50.720;-2.084;2023-07-30T05:15:27;11.40;;;3.15;;
64282;SDS011;50497;50.720;-2.084;2023-07-30T05:17:53;12.18;;;2.53;;
64282;SDS011;50497;50.720;-2.084;2023-07-30T05:20:18;11.15;;;2.88;;
64282;SDS011;50497;50.720;-2.084;2023-07-30T05:22:43;10.32;;;2.40;;
64282;SDS011;50497;50.720;-2.084;2023-07-30T05:25:09;12.23;;;2.72;;
64282;SDS011;50497;50.720;-2.084;2023-07-30T05:27:37;11.82;;;2.88;;
64282;SDS011;50497;50.720;-2.084;2023-07-30T05:30:02;11.10;;;2.40;;
64282;SDS011;50497;50.720;-2.084;2023-07-30T05:32:28;12.43;;;2.63;;
64282;SDS011;50497;50.720;-2.084;2023-07-30T05:34:53;9.02;;;2.38;;
64282;SDS011;50497;50.720;-2.084;2023-07-30T05:37:19;10.30;;;2.75;;
64282;SDS011;50497;50.720;-2.084;2023-07-30T05:39:44;10.48;;;2.95;;
64282;SDS011;50497;50.720;-2.084;2023-07-30T05:42:10;15.48;;;3.22;;
64282;SDS011;50497;50.720;-2.084;2023-07-30T05:44:35;12.20;;;2.13;;
64282;SDS011;50497;50.720;-2.084;2023-07-30T05:47:00;9.32;;;2.10;;
64282;SDS011;50497;50.720;-2.084;2023-07-30T05:49:25;9.63;;;2.30;;
64282;SDS011;50497;50.720;-2.084;2023-07-30T05:51:51;9.15;;;1.80;;
64282;SDS011;50497;50.720;-2.084;2023-07-30T05:54:16;10.30;;;2.33;;
64282;SDS011;50497;50.720;-2.084;2023-07-30T05:56:42;12.20;;;2.28;;
64282;SDS011;50497;50.720;-2.084;2023-07-30T05:59:08;13.52;;;2.33;;
64282;SDS011;50497;50.720;-2.084;2023-07-30T06:01:33;12.27;;;3.13;;
64282;SDS011;50497;50.720;-2.084;2023-07-30T06:03:59;15.35;;;3.53;;
64282;SDS011;50497;50.720;-2.084;2023-07-30T06:06:24;8.07;;;2.95;;
64282;SDS011;50497;50.720;-2.084;2023-07-30T06:08:55;13.73;;;3.00;;
64282;SDS011;50497;50.720;-2.084;2023-07-30T06:11:21;12.70;;;2.70;;
64282;SDS011;50497;50.720;-2.084;2023-07-30T06:13:47;9.65;;;2.30;;
64282;SDS011;50497;50.720;-2.084;2023-07-30T06:16:12;11.57;;;2.90;;
64282;SDS011;50497;50.720;-2.084;2023-07-30T06:18:38;4.57;;;1.33;;
64282;SDS011;50497;50.720;-2.084;2023-07-30T06:21:04;2.00;;;0.60;;
64282;SDS011;50497;50.720;-2.084;2023-07-30T06:23:29;7.13;;;1.85;;
64282;SDS011;50497;50.720;-2.084;2023-07-30T06:25:54;12.45;;;3.25;;
64282;SDS011;50497;50.720;-2.084;2023-07-30T06:28:20;10.55;;;2.42;;
64282;SDS011;50497;50.720;-2.084;2023-07-30T06:30:45;4.43;;;1.05;;
64282;SDS011;50497;50.720;-2.084;2023-07-30T06:33:11;9.82;;;2.50;;
64282;SDS011;50497;50.720;-2.084;2023-07-30T06:35:36;10.75;;;2.35;;
64282;SDS011;50497;50.720;-2.084;2023-07-30T06:38:01;10.90;;;2.25;;
64282;SDS011;50497;50.720;-2.084;2023-07-30T06:40:27;12.68;;;2.50;;
64282;SDS011;50497;50.720;-2.084;2023-07-30T06:42:52;12.60;;;2.28;;
64282;SDS011;50497;50.720;-2.084;2023-07-30T06:45:18;11.25;;;2.65;;
64282;SDS011;50497;50.720;-2.084;2023-07-30T06:47:43;14.95;;;2.60;;
64282;SDS011;50497;50.720;-2.084;2023-07-30T06:50:09;11.45;;;2.50;;
64282;SDS011;50497;50.720;-2.084;2023-07-30T06:52:34;11.25;;;2.42;;
64282;SDS011;50497;50.720;-2.084;2023-07-30T06:55:01;12.57;;;2.50;;
64282;SDS011;50497;50.720;-2.084;2023-07-30T06:57:28;12.57;;;2.40;;
64282;SDS011;50497;50.720;-2.084;2023-07-30T06:59:56;14.02;;;2.85;;
64282;SDS011;50497;50.720;-2.084;2023-07-30T07:02:22;12.75;;;2.60;;
64282;SDS011;50497;50.720;-2.084;2023-07-30T07:04:48;10.48;;;2.53;;
64282;SDS011;50497;50.720;-2.084;2023-07-30T07:07:14;12.23;;;2.78;;
64282;SDS011;50497;50.720;-2.084;2023-07-30T07:09:40;15.15;;;3.28;;
64282;SDS011;50497;50.720;-2.084;2023-07-30T07:12:06;12.15;;;2.40;;
64282;SDS011;50497;50.720;-2.084;2023-07-30T07:14:32;14.32;;;2.75;;
64282;SDS011;50497;50.720;-2.084;2023-07-30T07:16:57;14.98;;;3.40;;
64282;SDS011;50497;50.720;-2.084;2023-07-30T07:19:22;15.82;;;3.20;;
64282;SDS011;50497;50.720;-2.084;2023-07-30T07:21:48;12.68;;;2.95;;
64282;SDS011;50497;50.720;-2.084;2023-07-30T07:24:13;11.10;;;2.83;;
64282;SDS011;50497;50.720;-2.084;2023-07-30T07:26:38;15.10;;;2.95;;
64282;SDS011;50497;50.720;-2.084;2023-07-30T07:29:04;13.88;;;2.88;;
64282;SDS011;50497;50.720;-2.084;2023-07-30T07:31:29;1.02;;;0.52;;
64282;SDS011;50497;50.720;-2.084;2023-07-30T07:33:54;0.30;;;0.10;;
64282;SDS011;50497;50.720;-2.084;2023-07-30T07:36:20;0.00;;;0.00;;
64282;SDS011;50497;50.720;-2.084;2023-07-30T07:38:45;0.00;;;0.00;;
64282;SDS011;50497;50.720;-2.084;2023-07-30T07:41:14;0.00;;;0.00;;
64282;SDS011;50497;50.720;-2.084;2023-07-30T07:46:09;0.00;;;0.00;;
64282;SDS011;50497;50.720;-2.084;2023-07-30T07:48:41;0.00;;;0.00;;
64282;SDS011;50497;50.720;-2.084;2023-07-30T07:51:08;0.00;;;0.00;;
64282;SDS011;50497;50.720;-2.084;2023-07-30T07:53:35;0.00;;;0.00;;
64282;SDS011;50497;50.720;-2.084;2023-07-30T07:56:01;0.00;;;0.00;;
64282;SDS011;50497;50.720;-2.084;2023-07-30T07:58:27;0.00;;;0.00;;
64282;SDS011;50497;50.720;-2.084;2023-07-30T08:00:56;0.00;;;0.00;;
64282;SDS011;50497;50.720;-2.084;2023-07-30T08:03:22;0.00;;;0.00;;
64282;SDS011;50497;50.720;-2.084;2023-07-30T08:05:48;6.22;;;1.45;;
64282;SDS011;50497;50.720;-2.084;2023-07-30T08:08:13;0.00;;;0.00;;
64282;SDS011;50497;50.720;-2.084;2023-07-30T08:10:39;0.00;;;0.00;;
64282;SDS011;50497;50.720;-2.084;2023-07-30T08:13:08;0.00;;;0.00;;
64282;SDS011;50497;50.720;-2.084;2023-07-30T08:15:37;0.00;;;0.00;;
64282;SDS011;50497;50.720;-2.084;2023-07-30T08:18:02;0.00;;;0.00;;
64282;SDS011;50497;50.720;-2.084;2023-07-30T08:20:28;0.00;;;0.00;;
64282;SDS011;50497;50.720;-2.084;2023-07-30T08:22:53;0.00;;;0.00;;
64282;SDS011;50497;50.720;-2.084;2023-07-30T08:25:18;0.00;;;0.00;;
64282;SDS011;50497;50.720;-2.084;2023-07-30T08:27:45;0.00;;;0.00;;
64282;SDS011;50497;50.720;-2.084;2023-07-30T08:30:11;0.00;;;0.00;;
64282;SDS011;50497;50.720;-2.084;2023-07-30T08:32:37;0.00;;;0.00;;
64282;SDS011;50497;50.720;-2.084;2023-07-30T08:35:02;0.00;;;0.00;;
64282;SDS011;50497;50.720;-2.084;2023-07-30T08:37:28;0.00;;;0.00;;
64282;SDS011;50497;50.720;-2.084;2023-07-30T08:39:54;0.00;;;0.00;;
64282;SDS011;50497;50.720;-2.084;2023-07-30T08:42:19;0.00;;;0.00;;
64282;SDS011;50497;50.720;-2.084;2023-07-30T08:44:44;0.00;;;0.00;;
64282;SDS011;50497;50.720;-2.084;2023-07-30T08:47:10;0.00;;;0.00;;
64282;SDS011;50497;50.720;-2.084;2023-07-30T08:49:36;0.00;;;0.00;;
64282;SDS011;50497;50.720;-2.084;2023-07-30T08:52:02;0.00;;;0.00;;
64282;SDS011;50497;50.720;-2.084;2023-07-30T08:54:29;0.00;;;0.00;;
64282;SDS011;50497;50.720;-2.084;2023-07-30T08:56:56;0.00;;;0.00;;
64282;SDS011;50497;50.720;-2.084;2023-07-30T08:59:27;3.58;;;1.10;;
64282;SDS011;50497;50.720;-2.084;2023-07-30T09:02:22;14.13;;;4.22;;
64282;SDS011;50497;50.720;-2.084;2023-07-30T09:04:52;16.30;;;4.15;;
64282;SDS011;50497;50.720;-2.084;2023-07-30T09:07:21;16.08;;;5.85;;
64282;SDS011;50497;50.720;-2.084;2023-07-30T09:09:49;0.00;;;0.00;;
64282;SDS011;50497;50.720;-2.084;2023-07-30T09:12:15;0.00;;;0.00;;
64282;SDS011;50497;50.720;-2.084;2023-07-30T09:14:41;0.00;;;0.00;;
64282;SDS011;50497;50.720;-2.084;2023-07-30T09:17:10;0.00;;;0.00;;
64282;SDS011;50497;50.720;-2.084;2023-07-30T09:19:36;0.00;;;0.00;;
64282;SDS011;50497;50.720;-2.084;2023-07-30T09:22:05;0.00;;;0.00;;
64282;SDS011;50497;50.720;-2.084;2023-07-30T09:24:31;0.00;;;0.00;;
64282;SDS011;50497;50.720;-2.084;2023-07-30T09:26:57;0.00;;;0.00;;
64282;SDS011;50497;50.720;-2.084;2023-07-30T09:29:26;0.00;;;0.00;;
64282;SDS011;50497;50.720;-2.084;2023-07-30T09:31:52;12.48;;;4.30;;
64282;SDS011;50497;50.720;-2.084;2023-07-30T09:34:19;12.93;;;4.10;;
64282;SDS011;50497;50.720;-2.084;2023-07-30T09:36:46;12.30;;;3.47;;
64282;SDS011;50497;50.720;-2.084;2023-07-30T09:41:42;12.50;;;3.47;;
64282;SDS011;50497;50.720;-2.084;2023-07-30T09:44:08;12.60;;;3.40;;
64282;SDS011;50497;50.720;-2.084;2023-07-30T09:46:34;14.43;;;3.67;;
64282;SDS011;50497;50.720;-2.084;2023-07-30T09:49:08;10.38;;;3.47;;
64282;SDS011;50497;50.720;-2.084;2023-07-30T09:51:33;14.50;;;3.60;;
64282;SDS011;50497;50.720;-2.084;2023-07-30T09:53:59;13.65;;;4.10;;
64282;SDS011;50497;50.720;-2.084;2023-07-30T09:56:26;16.58;;;3.83;;
64282;SDS011;50497;50.720;-2.084;2023-07-30T09:58:51;16.95;;;3.55;;
64282;SDS011;50497;50.720;-2.084;2023-07-30T10:01:17;16.05;;;3.60;;
64282;SDS011;50497;50.720;-2.084;2023-07-30T10:03:47;14.02;;;3.92;;
64282;SDS011;50497;50.720;-2.084;2023-07-30T10:06:14;15.85;;;3.95;;
64282;SDS011;50497;50.720;-2.084;2023-07-30T10:08:41;11.77;;;3.30;;
64282;SDS011;50497;50.720;-2.084;2023-07-30T10:11:07;11.00;;;3.22;;
64282;SDS011;50497;50.720;-2.084;2023-07-30T10:13:34;13.20;;;3.47;;
64282;SDS011;50497;50.720;-2.084;2023-07-30T10:16:01;12.77;;;3.20;;
64282;SDS011;50497;50.720;-2.084;2023-07-30T10:18:38;11.07;;;3.17;;
64282;SDS011;50497;50.720;-2.084;2023-07-30T10:21:05;12.95;;;3.08;;
64282;SDS011;50497;50.720;-2.084;2023-07-30T10:23:34;10.10;;;3.33;;
64282;SDS011;50497;50.720;-2.084;2023-07-30T10:25:59;12.40;;;3.80;;
64282;SDS011;50497;50.720;-2.084;2023-07-30T10:28:35;10.48;;;3.50;;
64282;SDS011;50497;50.720;-2.084;2023-07-30T10:31:05;11.07;;;2.97;;
64282;SDS011;50497;50.720;-2.084;2023-07-30T10:33:49;11.10;;;3.00;;
64282;SDS011;50497;50.720;-2.084;2023-07-30T10:36:17;8.00;;;2.63;;
64282;SDS011;50497;50.720;-2.084;2023-07-30T10:38:44;12.55;;;3.70;;
64282;SDS011;50497;50.720;-2.084;2023-07-30T10:41:12;14.18;;;4.40;;
64282;SDS011;50497;50.720;-2.084;2023-07-30T10:43:42;14.82;;;4.30;;
64282;SDS011;50497;50.720;-2.084;2023-07-30T10:46:11;14.35;;;4.20;;
64282;SDS011;50497;50.720;-2.084;2023-07-30T10:48:41;14.60;;;3.58;;
64282;SDS011;50497;50.720;-2.084;2023-07-30T10:51:09;12.95;;;3.97;;
64282;SDS011;50497;50.720;-2.084;2023-07-30T10:53:37;16.13;;;4.35;;
64282;SDS011;50497;50.720;-2.084;2023-07-30T10:56:03;17.38;;;3.97;;
64282;SDS011;50497;50.720;-2.084;2023-07-30T10:58:30;20.15;;;8.65;;
64282;SDS011;50497;50.720;-2.084;2023-07-30T11:00:56;18.25;;;4.97;;
64282;SDS011;50497;50.720;-2.084;2023-07-30T11:03:24;17.65;;;5.30;;
64282;SDS011;50497;50.720;-2.084;2023-07-30T11:05:51;19.00;;;4.28;;
64282;SDS011;50497;50.720;-2.084;2023-07-30T11:08:17;21.88;;;6.22;;
64282;SDS011;50497;50.720;-2.084;2023-07-30T11:10:43;25.13;;;5.63;;
64282;SDS011;50497;50.720;-2.084;2023-07-30T11:13:10;16.23;;;4.78;;
64282;SDS011;50497;50.720;-2.084;2023-07-30T11:15:40;18.35;;;4.93;;
64282;SDS011;50497;50.720;-2.084;2023-07-30T11:18:07;20.27;;;4.70;;
64282;SDS011;50497;50.720;-2.084;2023-07-30T11:20:32;18.85;;;4.78;;
64282;SDS011;50497;50.720;-2.084;2023-07-30T11:22:58;22.23;;;5.78;;
64282;SDS011;50497;50.720;-2.084;2023-07-30T11:25:23;17.75;;;4.47;;
64282;SDS011;50497;50.720;-2.084;2023-07-30T11:27:48;16.90;;;4.85;;
64282;SDS011;50497;50.720;-2.084;2023-07-30T11:30:15;18.67;;;4.10;;
64282;SDS011;50497;50.720;-2.084;2023-07-30T11:32:41;18.48;;;4.30;;
64282;SDS011;50497;50.720;-2.084;2023-07-30T11:35:07;23.52;;;6.65;;
64282;SDS011;50497;50.720;-2.084;2023-07-30T11:37:34;22.65;;;6.82;;
64282;SDS011;50497;50.720;-2.084;2023-07-30T11:40:00;17.88;;;4.32;;
64282;SDS011;50497;50.720;-2.084;2023-07-30T11:42:25;17.33;;;5.20;;
64282;SDS011;50497;50.720;-2.084;2023-07-30T11:44:54;17.83;;;4.18;;
64282;SDS011;50497;50.720;-2.084;2023-07-30T11:47:20;20.80;;;5.25;;
64282;SDS011;50497;50.720;-2.084;2023-07-30T11:49:56;20.08;;;5.90;;
64282;SDS011;50497;50.720;-2.084;2023-07-30T11:52:22;26.70;;;6.00;;
64282;SDS011;50497;50.720;-2.084;2023-07-30T11:54:47;28.95;;;8.40;;
64282;SDS011;50497;50.720;-2.084;2023-07-30T11:57:13;23.30;;;5.53;;
64282;SDS011;50497;50.720;-2.084;2023-07-30T11:59:39;25.50;;;5.97;;
64282;SDS011;50497;50.720;-2.084;2023-07-30T12:02:07;25.27;;;5.95;;
64282;SDS011;50497;50.720;-2.084;2023-07-30T12:04:45;22.70;;;5.57;;
64282;SDS011;50497;50.720;-2.084;2023-07-30T12:07:10;22.50;;;6.53;;
64282;SDS011;50497;50.720;-2.084;2023-07-30T12:09:36;22.95;;;5.80;;
64282;SDS011;50497;50.720;-2.084;2023-07-30T12:12:03;26.08;;;8.90;;
64282;SDS011;50497;50.720;-2.084;2023-07-30T12:14:29;23.05;;;6.20;;
64282;SDS011;50497;50.720;-2.084;2023-07-30T12:17:07;23.05;;;5.25;;
64282;SDS011;50497;50.720;-2.084;2023-07-30T12:19:32;21.98;;;7.28;;
64282;SDS011;50497;50.720;-2.084;2023-07-30T12:21:58;20.65;;;5.10;;
64282;SDS011;50497;50.720;-2.084;2023-07-30T12:24:23;22.90;;;7.72;;
64282;SDS011;50497;50.720;-2.084;2023-07-30T12:26:48;23.00;;;6.10;;
64282;SDS011;50497;50.720;-2.084;2023-07-30T12:29:14;15.57;;;5.15;;
64282;SDS011;50497;50.720;-2.084;2023-07-30T12:31:39;19.52;;;5.38;;
64282;SDS011;50497;50.720;-2.084;2023-07-30T12:34:04;23.40;;;9.48;;
64282;SDS011;50497;50.720;-2.084;2023-07-30T12:36:30;18.98;;;5.18;;
64282;SDS011;50497;50.720;-2.084;2023-07-30T12:38:55;25.45;;;7.78;;
64282;SDS011;50497;50.720;-2.084;2023-07-30T12:41:21;19.10;;;5.28;;
64282;SDS011;50497;50.720;-2.084;2023-07-30T12:43:52;18.77;;;5.45;;
64282;SDS011;50497;50.720;-2.084;2023-07-30T12:46:19;20.17;;;4.78;;
64282;SDS011;50497;50.720;-2.084;2023-07-30T12:48:44;20.50;;;4.57;;
64282;SDS011;50497;50.720;-2.084;2023-07-30T12:51:10;19.05;;;5.03;;
64282;SDS011;50497;50.720;-2.084;2023-07-30T12:53:35;22.23;;;7.57;;
64282;SDS011;50497;50.720;-2.084;2023-07-30T12:56:00;18.92;;;6.22;;
64282;SDS011;50497;50.720;-2.084;2023-07-30T12:58:26;17.52;;;4.75;;
64282;SDS011;50497;50.720;-2.084;2023-07-30T13:00:51;17.02;;;4.80;;
64282;SDS011;50497;50.720;-2.084;2023-07-30T13:03:17;18.38;;;5.22;;
64282;SDS011;50497;50.720;-2.084;2023-07-30T13:05:42;18.90;;;5.00;;
64282;SDS011;50497;50.720;-2.084;2023-07-30T13:08:07;19.90;;;5.47;;
64282;SDS011;50497;50.720;-2.084;2023-07-30T13:10:33;22.88;;;5.43;;
64282;SDS011;50497;50.720;-2.084;2023-07-30T13:12:58;24.35;;;9.45;;
64282;SDS011;50497;50.720;-2.084;2023-07-30T13:15:23;27.90;;;6.00;;
64282;SDS011;50497;50.720;-2.084;2023-07-30T13:17:49;20.02;;;5.53;;
64282;SDS011;50497;50.720;-2.084;2023-07-30T13:20:14;17.33;;;4.68;;
64282;SDS011;50497;50.720;-2.084;2023-07-30T13:22:40;23.33;;;5.38;;
64282;SDS011;50497;50.720;-2.084;2023-07-30T13:25:05;19.88;;;5.40;;
64282;SDS011;50497;50.720;-2.084;2023-07-30T13:27:31;16.00;;;5.13;;
64282;SDS011;50497;50.720;-2.084;2023-07-30T13:29:56;19.17;;;5.75;;
64282;SDS011;50497;50.720;-2.084;2023-07-30T13:32:22;19.23;;;5.18;;
64282;SDS011;50497;50.720;-2.084;2023-07-30T13:34:47;18.98;;;4.90;;
64282;SDS011;50497;50.720;-2.084;2023-07-30T13:37:12;16.73;;;4.40;;
64282;SDS011;50497;50.720;-2.084;2023-07-30T13:39:38;18.63;;;4.82;;
64282;SDS011;50497;50.720;-2.084;2023-07-30T13:42:04;16.75;;;4.63;;
64282;SDS011;50497;50.720;-2.084;2023-07-30T13:44:29;18.88;;;5.20;;
64282;SDS011;50497;50.720;-2.084;2023-07-30T13:46:55;22.02;;;5.82;;
64282;SDS011;50497;50.720;-2.084;2023-07-30T13:49:20;19.83;;;5.35;;
64282;SDS011;50497;50.720;-2.084;2023-07-30T13:51:46;23.75;;;5.57;;
64282;SDS011;50497;50.720;-2.084;2023-07-30T13:54:11;20.55;;;5.68;;
64282;SDS011;50497;50.720;-2.084;2023-07-30T13:56:37;14.85;;;4.43;;
64282;SDS011;50497;50.720;-2.084;2023-07-30T13:59:03;23.15;;;5.15;;
64282;SDS011;50497;50.720;-2.084;2023-07-30T14:01:29;20.85;;;5.07;;
64282;SDS011;50497;50.720;-2.084;2023-07-30T14:03:54;19.92;;;5.18;;
64282;SDS011;50497;50.720;-2.084;2023-07-30T14:06:20;22.23;;;5.60;;
64282;SDS011;50497;50.720;-2.084;2023-07-30T14:08:45;20.88;;;4.57;;
64282;SDS011;50497;50.720;-2.084;2023-07-30T14:11:10;22.13;;;5.32;;
64282;SDS011;50497;50.720;-2.084;2023-07-30T14:13:36;23.08;;;5.22;;
64282;SDS011;50497;50.720;-2.084;2023-07-30T14:16:01;20.35;;;4.97;;
64282;SDS011;50497;50.720;-2.084;2023-07-30T14:18:26;18.98;;;4.90;;
64282;SDS011;50497;50.720;-2.084;2023-07-30T14:20:52;18.52;;;4.65;;
64282;SDS011;50497;50.720;-2.084;2023-07-30T14:23:18;21.08;;;5.32;;
64282;SDS011;50497;50.720;-2.084;2023-07-30T14:25:43;15.63;;;4.35;;
64282;SDS011;50497;50.720;-2.084;2023-07-30T14:28:09;18.30;;;4.82;;
64282;SDS011;50497;50.720;-2.084;2023-07-30T14:30:34;16.90;;;4.82;;